sensor_id;sensor_type;location;lat;lon;timestamp;P1;durP1;ratioP1;P2;durP2;ratioP2
76865;SDS011;66647;52.124;5.416;2023-05-10T00:00:42;16.60;;;7.05;;
76865;SDS011;66647;52.124;5.416;2023-05-10T00:03:09;18.73;;;7.95;;
76865;SDS011;66647;52.124;5.416;2023-05-10T00:05:36;18.13;;;8.70;;
76865;SDS011;66647;52.124;5.416;2023-05-10T00:08:03;18.33;;;8.18;;
76865;SDS011;66647;52.124;5.416;2023-05-10T00:10:29;20.35;;;7.93;;
76865;SDS011;66647;52.124;5.416;2023-05-10T00:12:56;19.48;;;7.90;;
76865;SDS011;66647;52.124;5.416;2023-05-10T00:15:22;20.73;;;9.30;;
76865;SDS011;66647;52.124;5.416;2023-05-10T00:17:50;17.58;;;7.82;;
76865;SDS011;66647;52.124;5.416;2023-05-10T00:20:17;19.13;;;7.85;;
76865;SDS011;66647;52.124;5.416;2023-05-10T00:22:43;23.70;;;9.45;;
76865;SDS011;66647;52.124;5.416;2023-05-10T00:25:10;21.85;;;9.02;;
76865;SDS011;66647;52.124;5.416;2023-05-10T00:27:36;23.05;;;8.25;;
76865;SDS011;66647;52.124;5.416;2023-05-10T00:30:04;25.35;;;10.70;;
76865;SDS011;66647;52.124;5.416;2023-05-10T00:32:30;28.20;;;11.30;;
76865;SDS011;66647;52.124;5.416;2023-05-10T00:34:57;24.45;;;9.88;;
76865;SDS011;66647;52.124;5.416;2023-05-10T00:37:27;28.25;;;9.73;;
76865;SDS011;66647;52.124;5.416;2023-05-10T00:39:53;29.77;;;11.52;;
76865;SDS011;66647;52.124;5.416;2023-05-10T00:42:20;33.13;;;12.82;;
76865;SDS011;66647;52.124;5.416;2023-05-10T00:44:47;30.02;;;12.50;;
76865;SDS011;66647;52.124;5.416;2023-05-10T00:47:15;36.67;;;13.48;;
76865;SDS011;66647;52.124;5.416;2023-05-10T00:49:42;35.15;;;13.20;;
76865;SDS011;66647;52.124;5.416;2023-05-10T00:52:09;35.85;;;13.80;;
76865;SDS011;66647;52.124;5.416;2023-05-10T00:54:38;34.58;;;13.07;;
76865;SDS011;66647;52.124;5.416;2023-05-10T00:57:05;37.90;;;13.48;;
76865;SDS011;66647;52.124;5.416;2023-05-10T00:59:32;35.15;;;12.52;;
76865;SDS011;66647;52.124;5.416;2023-05-10T01:01:58;36.05;;;14.98;;
76865;SDS011;66647;52.124;5.416;2023-05-10T01:04:25;37.67;;;16.55;;
76865;SDS011;66647;52.124;5.416;2023-05-10T01:06:52;37.88;;;14.27;;
76865;SDS011;66647;52.124;5.416;2023-05-10T01:09:20;37.53;;;15.27;;
76865;SDS011;66647;52.124;5.416;2023-05-10T01:11:48;40.10;;;14.15;;
76865;SDS011;66647;52.124;5.416;2023-05-10T01:14:15;37.97;;;13.80;;
76865;SDS011;66647;52.124;5.416;2023-05-10T01:16:46;36.92;;;13.38;;
76865;SDS011;66647;52.124;5.416;2023-05-10T01:19:24;36.67;;;13.60;;
76865;SDS011;66647;52.124;5.416;2023-05-10T01:22:32;37.05;;;13.40;;
76865;SDS011;66647;52.124;5.416;2023-05-10T01:24:53;37.25;;;14.00;;
76865;SDS011;66647;52.124;5.416;2023-05-10T01:27:38;34.95;;;13.13;;
76865;SDS011;66647;52.124;5.416;2023-05-10T01:33:35;32.67;;;11.52;;
76865;SDS011;66647;52.124;5.416;2023-05-10T01:39:08;36.22;;;12.02;;
76865;SDS011;66647;52.124;5.416;2023-05-10T01:41:48;38.65;;;13.02;;
76865;SDS011;66647;52.124;5.416;2023-05-10T01:44:34;34.25;;;13.18;;
76865;SDS011;66647;52.124;5.416;2023-05-10T01:47:14;42.72;;;15.07;;
76865;SDS011;66647;52.124;5.416;2023-05-10T01:49:45;38.15;;;12.80;;
76865;SDS011;66647;52.124;5.416;2023-05-10T01:52:18;36.25;;;13.18;;
76865;SDS011;66647;52.124;5.416;2023-05-10T01:54:49;33.83;;;12.55;;
76865;SDS011;66647;52.124;5.416;2023-05-10T01:57:37;34.97;;;13.65;;
76865;SDS011;66647;52.124;5.416;2023-05-10T02:00:06;36.03;;;13.15;;
76865;SDS011;66647;52.124;5.416;2023-05-10T02:02:42;35.78;;;13.25;;
76865;SDS011;66647;52.124;5.416;2023-05-10T02:05:13;37.63;;;13.23;;
76865;SDS011;66647;52.124;5.416;2023-05-10T02:07:41;34.67;;;12.90;;
76865;SDS011;66647;52.124;5.416;2023-05-10T02:10:09;41.92;;;14.73;;
76865;SDS011;66647;52.124;5.416;2023-05-10T02:12:37;40.35;;;13.30;;
76865;SDS011;66647;52.124;5.416;2023-05-10T02:15:07;37.03;;;13.27;;
76865;SDS011;66647;52.124;5.416;2023-05-10T02:17:37;38.83;;;14.35;;
76865;SDS011;66647;52.124;5.416;2023-05-10T02:20:05;42.50;;;13.45;;
76865;SDS011;66647;52.124;5.416;2023-05-10T02:22:34;39.63;;;14.25;;
76865;SDS011;66647;52.124;5.416;2023-05-10T02:25:02;37.28;;;13.52;;
76865;SDS011;66647;52.124;5.416;2023-05-10T02:27:30;42.10;;;14.60;;
76865;SDS011;66647;52.124;5.416;2023-05-10T02:29:57;37.42;;;13.45;;
76865;SDS011;66647;52.124;5.416;2023-05-10T02:32:24;35.08;;;13.43;;
76865;SDS011;66647;52.124;5.416;2023-05-10T02:34:55;37.45;;;14.00;;
76865;SDS011;66647;52.124;5.416;2023-05-10T02:37:23;39.10;;;13.77;;
76865;SDS011;66647;52.124;5.416;2023-05-10T02:39:52;40.90;;;14.82;;
76865;SDS011;66647;52.124;5.416;2023-05-10T02:42:26;40.78;;;15.75;;
76865;SDS011;66647;52.124;5.416;2023-05-10T02:44:59;39.55;;;13.73;;
76865;SDS011;66647;52.124;5.416;2023-05-10T02:47:28;39.42;;;14.30;;
76865;SDS011;66647;52.124;5.416;2023-05-10T02:49:55;40.90;;;13.75;;
76865;SDS011;66647;52.124;5.416;2023-05-10T02:52:23;40.78;;;13.38;;
76865;SDS011;66647;52.124;5.416;2023-05-10T02:54:54;38.53;;;13.20;;
76865;SDS011;66647;52.124;5.416;2023-05-10T02:57:27;43.35;;;13.85;;
76865;SDS011;66647;52.124;5.416;2023-05-10T02:59:57;44.45;;;14.55;;
76865;SDS011;66647;52.124;5.416;2023-05-10T03:02:26;39.95;;;14.23;;
76865;SDS011;66647;52.124;5.416;2023-05-10T03:04:53;41.17;;;14.93;;
76865;SDS011;66647;52.124;5.416;2023-05-10T03:07:19;43.85;;;14.63;;
76865;SDS011;66647;52.124;5.416;2023-05-10T03:09:48;50.25;;;16.48;;
76865;SDS011;66647;52.124;5.416;2023-05-10T03:15:19;49.00;;;15.77;;
76865;SDS011;66647;52.124;5.416;2023-05-10T03:18:06;46.70;;;14.85;;
76865;SDS011;66647;52.124;5.416;2023-05-10T03:20:36;51.08;;;16.40;;
76865;SDS011;66647;52.124;5.416;2023-05-10T03:23:11;47.85;;;15.68;;
76865;SDS011;66647;52.124;5.416;2023-05-10T03:25:39;49.63;;;14.52;;
76865;SDS011;66647;52.124;5.416;2023-05-10T03:28:07;57.33;;;16.20;;
76865;SDS011;66647;52.124;5.416;2023-05-10T03:30:34;51.08;;;15.75;;
76865;SDS011;66647;52.124;5.416;2023-05-10T03:33:05;49.72;;;15.98;;
76865;SDS011;66647;52.124;5.416;2023-05-10T03:35:38;54.90;;;16.15;;
76865;SDS011;66647;52.124;5.416;2023-05-10T03:38:05;49.97;;;15.45;;
76865;SDS011;66647;52.124;5.416;2023-05-10T03:40:32;54.35;;;15.88;;
76865;SDS011;66647;52.124;5.416;2023-05-10T03:42:58;51.58;;;15.07;;
76865;SDS011;66647;52.124;5.416;2023-05-10T03:45:25;47.15;;;14.95;;
76865;SDS011;66647;52.124;5.416;2023-05-10T03:47:52;50.72;;;16.75;;
76865;SDS011;66647;52.124;5.416;2023-05-10T03:50:20;54.40;;;16.05;;
76865;SDS011;66647;52.124;5.416;2023-05-10T03:52:47;49.03;;;15.40;;
76865;SDS011;66647;52.124;5.416;2023-05-10T03:55:13;56.80;;;16.30;;
76865;SDS011;66647;52.124;5.416;2023-05-10T03:57:40;52.25;;;15.57;;
76865;SDS011;66647;52.124;5.416;2023-05-10T04:00:07;60.35;;;16.48;;
76865;SDS011;66647;52.124;5.416;2023-05-10T04:02:40;45.88;;;15.07;;
76865;SDS011;66647;52.124;5.416;2023-05-10T04:05:10;53.92;;;16.25;;
76865;SDS011;66647;52.124;5.416;2023-05-10T04:07:37;50.17;;;14.25;;
76865;SDS011;66647;52.124;5.416;2023-05-10T04:10:03;49.75;;;14.45;;
76865;SDS011;66647;52.124;5.416;2023-05-10T04:12:30;48.83;;;14.55;;
76865;SDS011;66647;52.124;5.416;2023-05-10T04:14:57;58.00;;;16.25;;
76865;SDS011;66647;52.124;5.416;2023-05-10T04:17:23;45.55;;;14.02;;
76865;SDS011;66647;52.124;5.416;2023-05-10T04:19:50;49.72;;;14.15;;
76865;SDS011;66647;52.124;5.416;2023-05-10T04:22:19;49.60;;;14.48;;
76865;SDS011;66647;52.124;5.416;2023-05-10T04:24:45;46.17;;;13.45;;
76865;SDS011;66647;52.124;5.416;2023-05-10T04:27:12;41.70;;;14.10;;
76865;SDS011;66647;52.124;5.416;2023-05-10T04:29:38;46.33;;;13.32;;
76865;SDS011;66647;52.124;5.416;2023-05-10T04:32:05;45.97;;;13.65;;
76865;SDS011;66647;52.124;5.416;2023-05-10T04:34:31;45.78;;;13.73;;
76865;SDS011;66647;52.124;5.416;2023-05-10T04:37:00;46.15;;;13.73;;
76865;SDS011;66647;52.124;5.416;2023-05-10T04:39:26;44.60;;;14.27;;
76865;SDS011;66647;52.124;5.416;2023-05-10T04:41:53;48.38;;;14.45;;
76865;SDS011;66647;52.124;5.416;2023-05-10T04:44:19;48.20;;;13.73;;
76865;SDS011;66647;52.124;5.416;2023-05-10T04:46:46;47.53;;;13.50;;
76865;SDS011;66647;52.124;5.416;2023-05-10T04:49:12;52.30;;;14.50;;
76865;SDS011;66647;52.124;5.416;2023-05-10T04:51:40;44.25;;;13.32;;
76865;SDS011;66647;52.124;5.416;2023-05-10T04:54:06;47.28;;;15.15;;
76865;SDS011;66647;52.124;5.416;2023-05-10T04:56:33;48.08;;;15.73;;
76865;SDS011;66647;52.124;5.416;2023-05-10T04:59:00;47.38;;;14.95;;
76865;SDS011;66647;52.124;5.416;2023-05-10T05:01:26;48.95;;;13.75;;
76865;SDS011;66647;52.124;5.416;2023-05-10T05:03:53;49.80;;;15.10;;
76865;SDS011;66647;52.124;5.416;2023-05-10T05:06:20;47.65;;;15.07;;
76865;SDS011;66647;52.124;5.416;2023-05-10T05:08:51;51.08;;;14.77;;
76865;SDS011;66647;52.124;5.416;2023-05-10T05:11:17;52.10;;;15.13;;
76865;SDS011;66647;52.124;5.416;2023-05-10T05:13:44;47.03;;;14.43;;
76865;SDS011;66647;52.124;5.416;2023-05-10T05:16:10;46.38;;;15.55;;
76865;SDS011;66647;52.124;5.416;2023-05-10T05:18:39;54.60;;;15.35;;
76865;SDS011;66647;52.124;5.416;2023-05-10T05:21:15;47.03;;;13.52;;
76865;SDS011;66647;52.124;5.416;2023-05-10T05:23:43;57.50;;;16.52;;
76865;SDS011;66647;52.124;5.416;2023-05-10T05:26:10;53.38;;;15.52;;
76865;SDS011;66647;52.124;5.416;2023-05-10T05:28:37;49.67;;;15.57;;
76865;SDS011;66647;52.124;5.416;2023-05-10T05:31:04;52.92;;;15.57;;
76865;SDS011;66647;52.124;5.416;2023-05-10T05:33:31;54.30;;;15.45;;
76865;SDS011;66647;52.124;5.416;2023-05-10T05:36:00;53.08;;;16.00;;
76865;SDS011;66647;52.124;5.416;2023-05-10T05:38:30;60.47;;;16.20;;
76865;SDS011;66647;52.124;5.416;2023-05-10T05:40:57;46.00;;;16.05;;
76865;SDS011;66647;52.124;5.416;2023-05-10T05:43:24;58.65;;;19.08;;
76865;SDS011;66647;52.124;5.416;2023-05-10T05:45:52;51.70;;;16.65;;
76865;SDS011;66647;52.124;5.416;2023-05-10T05:48:20;51.45;;;14.90;;
76865;SDS011;66647;52.124;5.416;2023-05-10T05:50:47;52.13;;;16.55;;
76865;SDS011;66647;52.124;5.416;2023-05-10T05:53:13;42.30;;;15.32;;
76865;SDS011;66647;52.124;5.416;2023-05-10T05:55:40;48.83;;;15.80;;
76865;SDS011;66647;52.124;5.416;2023-05-10T05:58:06;46.13;;;15.43;;
76865;SDS011;66647;52.124;5.416;2023-05-10T06:00:34;47.35;;;15.35;;
76865;SDS011;66647;52.124;5.416;2023-05-10T06:03:00;46.38;;;14.35;;
76865;SDS011;66647;52.124;5.416;2023-05-10T06:05:27;38.63;;;13.45;;
76865;SDS011;66647;52.124;5.416;2023-05-10T06:07:56;39.90;;;13.38;;
76865;SDS011;66647;52.124;5.416;2023-05-10T06:10:22;40.17;;;13.93;;
76865;SDS011;66647;52.124;5.416;2023-05-10T06:12:49;40.28;;;14.45;;
76865;SDS011;66647;52.124;5.416;2023-05-10T06:15:17;39.85;;;13.40;;
76865;SDS011;66647;52.124;5.416;2023-05-10T06:17:43;35.05;;;12.80;;
76865;SDS011;66647;52.124;5.416;2023-05-10T06:20:10;40.30;;;13.35;;
76865;SDS011;66647;52.124;5.416;2023-05-10T06:22:38;43.10;;;14.25;;
76865;SDS011;66647;52.124;5.416;2023-05-10T06:25:04;37.63;;;13.75;;
76865;SDS011;66647;52.124;5.416;2023-05-10T06:27:31;39.55;;;13.18;;
76865;SDS011;66647;52.124;5.416;2023-05-10T06:29:57;37.20;;;15.35;;
76865;SDS011;66647;52.124;5.416;2023-05-10T06:32:38;39.80;;;12.38;;
76865;SDS011;66647;52.124;5.416;2023-05-10T06:35:05;36.63;;;12.80;;
76865;SDS011;66647;52.124;5.416;2023-05-10T06:37:32;33.78;;;11.75;;
76865;SDS011;66647;52.124;5.416;2023-05-10T06:39:58;31.08;;;11.82;;
76865;SDS011;66647;52.124;5.416;2023-05-10T06:42:25;31.38;;;11.15;;
76865;SDS011;66647;52.124;5.416;2023-05-10T06:44:51;36.42;;;11.45;;
76865;SDS011;66647;52.124;5.416;2023-05-10T06:47:18;29.23;;;10.40;;
76865;SDS011;66647;52.124;5.416;2023-05-10T06:49:44;27.98;;;9.68;;
76865;SDS011;66647;52.124;5.416;2023-05-10T06:52:11;27.98;;;9.38;;
76865;SDS011;66647;52.124;5.416;2023-05-10T06:54:38;28.77;;;10.15;;
76865;SDS011;66647;52.124;5.416;2023-05-10T06:57:04;29.13;;;9.90;;
76865;SDS011;66647;52.124;5.416;2023-05-10T06:59:48;21.15;;;7.85;;
76865;SDS011;66647;52.124;5.416;2023-05-10T07:02:15;21.63;;;8.48;;
76865;SDS011;66647;52.124;5.416;2023-05-10T07:04:42;19.38;;;6.82;;
76865;SDS011;66647;52.124;5.416;2023-05-10T07:07:09;20.85;;;7.05;;
76865;SDS011;66647;52.124;5.416;2023-05-10T07:09:35;21.55;;;6.78;;
76865;SDS011;66647;52.124;5.416;2023-05-10T07:12:02;16.55;;;6.28;;
76865;SDS011;66647;52.124;5.416;2023-05-10T07:14:29;16.90;;;5.90;;
76865;SDS011;66647;52.124;5.416;2023-05-10T07:16:55;18.95;;;6.40;;
76865;SDS011;66647;52.124;5.416;2023-05-10T07:19:22;16.70;;;4.97;;
76865;SDS011;66647;52.124;5.416;2023-05-10T07:21:48;12.82;;;4.80;;
76865;SDS011;66647;52.124;5.416;2023-05-10T07:24:15;16.50;;;5.63;;
76865;SDS011;66647;52.124;5.416;2023-05-10T07:26:41;13.15;;;4.85;;
76865;SDS011;66647;52.124;5.416;2023-05-10T07:29:08;15.98;;;5.40;;
76865;SDS011;66647;52.124;5.416;2023-05-10T07:31:34;13.45;;;4.88;;
76865;SDS011;66647;52.124;5.416;2023-05-10T07:34:01;17.20;;;5.00;;
76865;SDS011;66647;52.124;5.416;2023-05-10T07:36:27;13.30;;;4.88;;
76865;SDS011;66647;52.124;5.416;2023-05-10T07:38:54;14.45;;;4.57;;
76865;SDS011;66647;52.124;5.416;2023-05-10T07:41:23;16.80;;;5.25;;
76865;SDS011;66647;52.124;5.416;2023-05-10T07:43:50;12.77;;;4.43;;
76865;SDS011;66647;52.124;5.416;2023-05-10T07:46:16;13.93;;;5.10;;
76865;SDS011;66647;52.124;5.416;2023-05-10T07:48:43;13.60;;;5.35;;
76865;SDS011;66647;52.124;5.416;2023-05-10T07:51:09;16.48;;;5.55;;
76865;SDS011;66647;52.124;5.416;2023-05-10T07:53:37;15.63;;;5.97;;
76865;SDS011;66647;52.124;5.416;2023-05-10T07:56:23;13.82;;;4.47;;
76865;SDS011;66647;52.124;5.416;2023-05-10T08:01:20;12.95;;;4.03;;
76865;SDS011;66647;52.124;5.416;2023-05-10T08:03:46;12.73;;;4.40;;
76865;SDS011;66647;52.124;5.416;2023-05-10T08:06:14;11.52;;;4.25;;
76865;SDS011;66647;52.124;5.416;2023-05-10T08:08:41;12.27;;;4.90;;
76865;SDS011;66647;52.124;5.416;2023-05-10T08:11:08;12.70;;;4.65;;
76865;SDS011;66647;52.124;5.416;2023-05-10T08:13:34;11.73;;;4.63;;
76865;SDS011;66647;52.124;5.416;2023-05-10T08:16:01;12.50;;;4.45;;
76865;SDS011;66647;52.124;5.416;2023-05-10T08:18:28;11.90;;;4.30;;
76865;SDS011;66647;52.124;5.416;2023-05-10T08:20:54;13.07;;;5.47;;
76865;SDS011;66647;52.124;5.416;2023-05-10T08:23:21;10.88;;;4.32;;
76865;SDS011;66647;52.124;5.416;2023-05-10T08:25:47;11.98;;;4.47;;
76865;SDS011;66647;52.124;5.416;2023-05-10T08:28:14;14.55;;;5.03;;
76865;SDS011;66647;52.124;5.416;2023-05-10T08:30:41;10.80;;;4.53;;
76865;SDS011;66647;52.124;5.416;2023-05-10T08:33:07;16.88;;;6.78;;
76865;SDS011;66647;52.124;5.416;2023-05-10T08:35:34;14.45;;;4.85;;
76865;SDS011;66647;52.124;5.416;2023-05-10T08:38:01;14.95;;;4.95;;
76865;SDS011;66647;52.124;5.416;2023-05-10T08:40:27;11.80;;;5.00;;
76865;SDS011;66647;52.124;5.416;2023-05-10T08:43:07;16.55;;;5.38;;
76865;SDS011;66647;52.124;5.416;2023-05-10T08:45:39;12.00;;;4.68;;
76865;SDS011;66647;52.124;5.416;2023-05-10T08:48:07;14.77;;;5.78;;
76865;SDS011;66647;52.124;5.416;2023-05-10T08:50:36;11.73;;;5.07;;
76865;SDS011;66647;52.124;5.416;2023-05-10T08:53:09;13.55;;;5.40;;
76865;SDS011;66647;52.124;5.416;2023-05-10T08:55:37;13.15;;;5.80;;
76865;SDS011;66647;52.124;5.416;2023-05-10T08:58:05;12.48;;;5.10;;
76865;SDS011;66647;52.124;5.416;2023-05-10T09:00:32;12.18;;;5.00;;
76865;SDS011;66647;52.124;5.416;2023-05-10T09:02:59;15.85;;;5.50;;
76865;SDS011;66647;52.124;5.416;2023-05-10T09:05:27;14.75;;;5.40;;
76865;SDS011;66647;52.124;5.416;2023-05-10T09:07:53;17.92;;;5.60;;
76865;SDS011;66647;52.124;5.416;2023-05-10T09:10:20;14.15;;;5.53;;
76865;SDS011;66647;52.124;5.416;2023-05-10T09:12:47;11.38;;;4.50;;
76865;SDS011;66647;52.124;5.416;2023-05-10T09:15:15;8.80;;;4.03;;
76865;SDS011;66647;52.124;5.416;2023-05-10T09:17:42;7.30;;;3.05;;
76865;SDS011;66647;52.124;5.416;2023-05-10T09:20:10;9.48;;;3.40;;
76865;SDS011;66647;52.124;5.416;2023-05-10T09:22:37;13.20;;;3.65;;
76865;SDS011;66647;52.124;5.416;2023-05-10T09:25:05;8.48;;;4.00;;
76865;SDS011;66647;52.124;5.416;2023-05-10T09:27:32;7.30;;;3.08;;
76865;SDS011;66647;52.124;5.416;2023-05-10T09:30:00;9.75;;;3.60;;
76865;SDS011;66647;52.124;5.416;2023-05-10T09:32:47;7.32;;;2.97;;
76865;SDS011;66647;52.124;5.416;2023-05-10T09:35:14;7.07;;;3.03;;
76865;SDS011;66647;52.124;5.416;2023-05-10T09:37:43;8.95;;;3.13;;
76865;SDS011;66647;52.124;5.416;2023-05-10T09:40:13;7.30;;;2.78;;
76865;SDS011;66647;52.124;5.416;2023-05-10T09:42:51;6.90;;;2.17;;
76865;SDS011;66647;52.124;5.416;2023-05-10T09:45:33;5.75;;;1.38;;
76865;SDS011;66647;52.124;5.416;2023-05-10T09:48:04;5.85;;;1.73;;
76865;SDS011;66647;52.124;5.416;2023-05-10T09:50:30;4.80;;;1.45;;
76865;SDS011;66647;52.124;5.416;2023-05-10T09:52:58;5.78;;;1.35;;
76865;SDS011;66647;52.124;5.416;2023-05-10T09:58:04;5.32;;;2.15;;
76865;SDS011;66647;52.124;5.416;2023-05-10T10:00:42;5.72;;;2.05;;
76865;SDS011;66647;52.124;5.416;2023-05-10T10:03:14;6.47;;;1.98;;
76865;SDS011;66647;52.124;5.416;2023-05-10T10:05:43;6.35;;;2.00;;
76865;SDS011;66647;52.124;5.416;2023-05-10T10:08:10;4.95;;;1.80;;
76865;SDS011;66647;52.124;5.416;2023-05-10T10:10:40;4.85;;;1.20;;
76865;SDS011;66647;52.124;5.416;2023-05-10T10:15:34;6.35;;;1.58;;
76865;SDS011;66647;52.124;5.416;2023-05-10T10:18:30;7.03;;;2.15;;
76865;SDS011;66647;52.124;5.416;2023-05-10T10:20:57;10.30;;;1.85;;
76865;SDS011;66647;52.124;5.416;2023-05-10T10:23:24;4.85;;;1.70;;
76865;SDS011;66647;52.124;5.416;2023-05-10T10:25:52;4.68;;;1.90;;
76865;SDS011;66647;52.124;5.416;2023-05-10T10:28:26;5.85;;;2.70;;
76865;SDS011;66647;52.124;5.416;2023-05-10T10:34:05;5.85;;;1.88;;
76865;SDS011;66647;52.124;5.416;2023-05-10T10:36:55;6.50;;;2.53;;
76865;SDS011;66647;52.124;5.416;2023-05-10T10:39:21;7.32;;;2.72;;
76865;SDS011;66647;52.124;5.416;2023-05-10T10:41:51;6.88;;;2.95;;
76865;SDS011;66647;52.124;5.416;2023-05-10T10:47:31;7.25;;;1.92;;
76865;SDS011;66647;52.124;5.416;2023-05-10T10:52:28;7.75;;;2.17;;
76865;SDS011;66647;52.124;5.416;2023-05-10T10:57:54;7.03;;;1.88;;
76865;SDS011;66647;52.124;5.416;2023-05-10T11:08:25;6.70;;;2.38;;
76865;SDS011;66647;52.124;5.416;2023-05-10T11:13:28;6.50;;;1.48;;
76865;SDS011;66647;52.124;5.416;2023-05-10T11:15:56;7.00;;;1.60;;
76865;SDS011;66647;52.124;5.416;2023-05-10T11:18:24;6.88;;;2.25;;
76865;SDS011;66647;52.124;5.416;2023-05-10T11:20:59;5.72;;;2.17;;
76865;SDS011;66647;52.124;5.416;2023-05-10T11:23:32;5.35;;;1.80;;
76865;SDS011;66647;52.124;5.416;2023-05-10T11:26:15;6.07;;;1.60;;
76865;SDS011;66647;52.124;5.416;2023-05-10T11:28:45;5.53;;;1.75;;
76865;SDS011;66647;52.124;5.416;2023-05-10T11:31:13;5.03;;;1.35;;
76865;SDS011;66647;52.124;5.416;2023-05-10T11:33:44;6.10;;;1.38;;
76865;SDS011;66647;52.124;5.416;2023-05-10T11:36:19;5.82;;;1.70;;
76865;SDS011;66647;52.124;5.416;2023-05-10T11:38:48;4.65;;;1.70;;
76865;SDS011;66647;52.124;5.416;2023-05-10T11:41:15;6.25;;;1.60;;
76865;SDS011;66647;52.124;5.416;2023-05-10T11:43:44;4.90;;;1.38;;
76865;SDS011;66647;52.124;5.416;2023-05-10T11:46:13;5.65;;;1.45;;
76865;SDS011;66647;52.124;5.416;2023-05-10T11:48:40;5.15;;;1.80;;
76865;SDS011;66647;52.124;5.416;2023-05-10T11:51:08;5.70;;;1.70;;
76865;SDS011;66647;52.124;5.416;2023-05-10T11:53:35;5.47;;;1.55;;
76865;SDS011;66647;52.124;5.416;2023-05-10T11:56:02;4.07;;;0.95;;
76865;SDS011;66647;52.124;5.416;2023-05-10T11:58:32;6.28;;;1.05;;
76865;SDS011;66647;52.124;5.416;2023-05-10T12:01:00;4.38;;;0.77;;
76865;SDS011;66647;52.124;5.416;2023-05-10T12:03:27;4.63;;;1.27;;
76865;SDS011;66647;52.124;5.416;2023-05-10T12:05:54;6.95;;;0.60;;
76865;SDS011;66647;52.124;5.416;2023-05-10T12:08:23;3.92;;;1.10;;
76865;SDS011;66647;52.124;5.416;2023-05-10T12:10:51;4.78;;;1.05;;
76865;SDS011;66647;52.124;5.416;2023-05-10T12:13:29;4.75;;;1.45;;
76865;SDS011;66647;52.124;5.416;2023-05-10T12:15:59;6.32;;;1.00;;
76865;SDS011;66647;52.124;5.416;2023-05-10T12:18:26;3.97;;;0.90;;
76865;SDS011;66647;52.124;5.416;2023-05-10T12:20:53;4.03;;;1.15;;
76865;SDS011;66647;52.124;5.416;2023-05-10T12:23:20;4.30;;;0.70;;
76865;SDS011;66647;52.124;5.416;2023-05-10T12:25:46;3.85;;;0.50;;
76865;SDS011;66647;52.124;5.416;2023-05-10T12:28:13;3.65;;;0.85;;
76865;SDS011;66647;52.124;5.416;2023-05-10T12:30:39;3.50;;;1.38;;
76865;SDS011;66647;52.124;5.416;2023-05-10T12:33:10;3.40;;;0.75;;
76865;SDS011;66647;52.124;5.416;2023-05-10T12:35:45;4.97;;;0.73;;
76865;SDS011;66647;52.124;5.416;2023-05-10T12:41:01;2.63;;;0.60;;
76865;SDS011;66647;52.124;5.416;2023-05-10T12:43:30;2.20;;;0.50;;
76865;SDS011;66647;52.124;5.416;2023-05-10T12:45:57;3.50;;;0.43;;
76865;SDS011;66647;52.124;5.416;2023-05-10T12:48:24;3.75;;;0.77;;
76865;SDS011;66647;52.124;5.416;2023-05-10T12:50:51;3.60;;;0.65;;
76865;SDS011;66647;52.124;5.416;2023-05-10T12:53:17;2.60;;;0.75;;
76865;SDS011;66647;52.124;5.416;2023-05-10T12:55:44;4.10;;;1.33;;
76865;SDS011;66647;52.124;5.416;2023-05-10T12:58:10;2.53;;;0.82;;
76865;SDS011;66647;52.124;5.416;2023-05-10T13:00:52;2.90;;;0.25;;
76865;SDS011;66647;52.124;5.416;2023-05-10T13:03:20;2.40;;;0.55;;
76865;SDS011;66647;52.124;5.416;2023-05-10T13:05:46;3.67;;;0.40;;
76865;SDS011;66647;52.124;5.416;2023-05-10T13:08:12;1.60;;;0.25;;
76865;SDS011;66647;52.124;5.416;2023-05-10T13:10:39;2.45;;;0.60;;
76865;SDS011;66647;52.124;5.416;2023-05-10T13:13:06;2.30;;;0.22;;
76865;SDS011;66647;52.124;5.416;2023-05-10T13:15:34;2.20;;;0.28;;
76865;SDS011;66647;52.124;5.416;2023-05-10T13:18:01;5.32;;;0.80;;
76865;SDS011;66647;52.124;5.416;2023-05-10T13:20:27;6.97;;;1.60;;
76865;SDS011;66647;52.124;5.416;2023-05-10T13:22:54;6.07;;;1.65;;
76865;SDS011;66647;52.124;5.416;2023-05-10T13:25:20;4.60;;;2.00;;
76865;SDS011;66647;52.124;5.416;2023-05-10T13:27:47;8.40;;;2.28;;
76865;SDS011;66647;52.124;5.416;2023-05-10T13:30:13;5.75;;;1.73;;
76865;SDS011;66647;52.124;5.416;2023-05-10T13:32:40;5.50;;;1.98;;
76865;SDS011;66647;52.124;5.416;2023-05-10T13:35:07;6.28;;;1.50;;
76865;SDS011;66647;52.124;5.416;2023-05-10T13:37:34;9.88;;;1.45;;
76865;SDS011;66647;52.124;5.416;2023-05-10T13:40:03;4.57;;;0.95;;
76865;SDS011;66647;52.124;5.416;2023-05-10T13:42:30;8.85;;;1.33;;
76865;SDS011;66647;52.124;5.416;2023-05-10T13:45:00;5.85;;;0.95;;
76865;SDS011;66647;52.124;5.416;2023-05-10T13:47:27;8.55;;;1.02;;
76865;SDS011;66647;52.124;5.416;2023-05-10T13:49:54;6.22;;;1.10;;
76865;SDS011;66647;52.124;5.416;2023-05-10T13:52:21;6.90;;;1.50;;
76865;SDS011;66647;52.124;5.416;2023-05-10T13:54:47;8.70;;;2.63;;
76865;SDS011;66647;52.124;5.416;2023-05-10T13:57:16;15.70;;;2.10;;
76865;SDS011;66647;52.124;5.416;2023-05-10T13:59:43;7.28;;;1.98;;
76865;SDS011;66647;52.124;5.416;2023-05-10T14:02:09;7.80;;;2.10;;
76865;SDS011;66647;52.124;5.416;2023-05-10T14:04:39;8.15;;;1.40;;
76865;SDS011;66647;52.124;5.416;2023-05-10T14:07:05;6.10;;;1.42;;
76865;SDS011;66647;52.124;5.416;2023-05-10T14:09:31;5.78;;;1.67;;
76865;SDS011;66647;52.124;5.416;2023-05-10T14:11:58;7.13;;;1.92;;
76865;SDS011;66647;52.124;5.416;2023-05-10T14:14:24;9.98;;;2.10;;
76865;SDS011;66647;52.124;5.416;2023-05-10T14:16:51;7.22;;;2.20;;
76865;SDS011;66647;52.124;5.416;2023-05-10T14:19:18;7.38;;;1.98;;
76865;SDS011;66647;52.124;5.416;2023-05-10T14:21:44;7.50;;;1.90;;
76865;SDS011;66647;52.124;5.416;2023-05-10T14:24:14;6.75;;;1.88;;
76865;SDS011;66647;52.124;5.416;2023-05-10T14:26:40;8.15;;;2.25;;
76865;SDS011;66647;52.124;5.416;2023-05-10T14:29:07;9.48;;;2.05;;
76865;SDS011;66647;52.124;5.416;2023-05-10T14:31:36;7.63;;;2.15;;
76865;SDS011;66647;52.124;5.416;2023-05-10T14:34:03;7.38;;;2.28;;
76865;SDS011;66647;52.124;5.416;2023-05-10T14:36:29;9.32;;;2.50;;
76865;SDS011;66647;52.124;5.416;2023-05-10T14:38:56;8.90;;;3.10;;
76865;SDS011;66647;52.124;5.416;2023-05-10T14:41:22;8.77;;;2.53;;
76865;SDS011;66647;52.124;5.416;2023-05-10T14:43:50;7.57;;;2.30;;
76865;SDS011;66647;52.124;5.416;2023-05-10T14:46:16;10.20;;;2.47;;
76865;SDS011;66647;52.124;5.416;2023-05-10T14:48:43;8.57;;;2.67;;
76865;SDS011;66647;52.124;5.416;2023-05-10T14:51:10;9.38;;;2.88;;
76865;SDS011;66647;52.124;5.416;2023-05-10T14:53:38;9.40;;;3.10;;
76865;SDS011;66647;52.124;5.416;2023-05-10T14:56:04;8.23;;;2.83;;
76865;SDS011;66647;52.124;5.416;2023-05-10T14:58:31;11.25;;;3.30;;
76865;SDS011;66647;52.124;5.416;2023-05-10T15:00:59;10.77;;;3.30;;
76865;SDS011;66647;52.124;5.416;2023-05-10T15:03:26;12.15;;;3.33;;
76865;SDS011;66647;52.124;5.416;2023-05-10T15:05:54;8.95;;;2.78;;
76865;SDS011;66647;52.124;5.416;2023-05-10T15:08:22;8.52;;;2.55;;
76865;SDS011;66647;52.124;5.416;2023-05-10T15:10:49;9.32;;;2.72;;
76865;SDS011;66647;52.124;5.416;2023-05-10T15:13:16;7.40;;;2.42;;
76865;SDS011;66647;52.124;5.416;2023-05-10T15:15:43;10.77;;;3.20;;
76865;SDS011;66647;52.124;5.416;2023-05-10T15:18:09;8.85;;;2.95;;
76865;SDS011;66647;52.124;5.416;2023-05-10T15:20:36;9.98;;;3.17;;
76865;SDS011;66647;52.124;5.416;2023-05-10T15:23:03;9.50;;;3.08;;